Time;durP1;ratioP1;P1;durP2;ratioP2;P2;SDS_P1;SDS_P2;PMS_P1;PMS_P2;Temp;Humidity;BMP_temperature;BMP_pressure;BME280_temperature;BME280_humidity;BME280_pressure;Samples;Min_cycle;Max_cycle;Signal;HPM_P1;HPM_P2
2021/07/12 00:01:22;;;;;;;;;;;;;;;20.75;77.45;98057.97;1725965;81;20232;-84
2021/07/12 00:03:48;;;;;;;;;;;;;;;20.77;77.45;98060.78;1728753;82;24923;-84
2021/07/12 00:06:14;;;;;;;;;;;;;;;20.79;77.46;98057.92;1728952;82;20408;-83
2021/07/12 00:08:43;;;;;;;;;;;;;;;20.72;77.45;98055.69;1698185;82;20994;-83
2021/07/12 00:11:08;;;;;;;;;;;;;;;20.57;77.44;98057.45;1725875;82;24516;-83
2021/07/12 00:13:40;;;;;;;;;;;;;;;20.46;77.46;98057.37;1727062;82;20345;-83
2021/07/12 00:16:06;;;;;;;;;;;;;;;20.34;77.51;98049.52;1726542;82;24854;-83
2021/07/12 00:18:32;;;;;;;;;;;;;;;20.24;77.55;98050.20;1726643;82;21886;-83
2021/07/12 00:20:58;;;;;;;;;;;;;;;20.12;77.61;98038.36;1727717;82;26031;-83
2021/07/12 00:23:24;;;;;;;;;;;;;;;20.08;77.68;98042.35;1723591;82;20807;-90
2021/07/12 00:25:55;;;;;;;;;;;;;;;20.19;77.77;98044.59;1721003;83;20299;-90
2021/07/12 00:28:28;;;;;;;;;;;;;;;20.28;77.86;98040.90;1715954;83;24831;-91
2021/07/12 00:30:51;;;;;;;;;;;;;;;20.36;77.93;98040.35;1720633;83;22003;-91
2021/07/12 00:33:35;;;;;;;;;;;;;;;20.44;77.98;98045.62;1721972;83;26724;-90
2021/07/12 00:36:03;;;;;;;;;;;;;;;20.52;78.00;98044.70;1730086;80;24623;-90
2021/07/12 00:38:29;;;;;;;;;;;;;;;20.56;78.02;98051.34;1715534;83;20293;-90
2021/07/12 00:40:56;;;;;;;;;;;;;;;20.47;78.04;98051.06;1710402;83;24739;-91
2021/07/12 00:43:37;;;;;;;;;;;;;;;20.36;78.10;98053.64;1722249;83;21949;-90
2021/07/12 00:46:03;;;;;;;;;;;;;;;20.37;78.11;98049.16;1695554;83;26162;-91
2021/07/12 00:48:33;;;;;;;;;;;;;;;20.43;78.12;98041.30;1722952;83;24407;-89
2021/07/12 00:51:01;;;;;;;;;;;;;;;20.37;78.16;98036.70;1711423;83;20355;-90
2021/07/12 00:53:30;;;;;;;;;;;;;;;20.31;78.20;98037.88;1736988;82;24760;-90
2021/07/12 00:56:18;;;;;;;;;;;;;;;20.38;78.22;98036.20;1722615;83;22065;-90
2021/07/12 00:58:50;;;;;;;;;;;;;;;20.48;78.23;98030.62;1718090;83;26216;-90
2021/07/12 01:01:27;;;;;;;;;;;;;;;20.55;78.21;98036.39;1719487;83;24589;-90
2021/07/12 01:03:53;;;;;;;;;;;;;;;20.62;78.19;98036.50;1717236;83;20205;-89
2021/07/12 01:06:35;;;;;;;;;;;;;;;20.65;78.17;98037.45;1719807;83;24796;-90
2021/07/12 01:09:07;;;;;;;;;;;;;;;20.66;78.17;98048.42;1695648;83;21787;-90
2021/07/12 01:11:45;;;;;;;;;;;;;;;20.52;78.18;98046.03;1717794;83;25983;-90
2021/07/12 01:14:16;;;;;;;;;;;;;;;20.43;78.19;98053.27;1715419;83;24464;-90
2021/07/12 01:16:46;;;;;;;;;;;;;;;20.44;78.20;98064.73;1717315;83;20218;-90
2021/07/12 01:19:48;;;;;;;;;;;;;;;20.47;78.21;98074.98;1718844;83;24839;-90
2021/07/12 01:22:26;;;;;;;;;;;;;;;20.48;78.20;98085.12;1714455;83;22216;-90
2021/07/12 01:25:13;;;;;;;;;;;;;;;20.44;78.21;98076.69;1702395;83;26050;-90
2021/07/12 01:28:04;;;;;;;;;;;;;;;20.44;78.21;98067.38;1693948;84;25379;-90
2021/07/12 01:30:54;;;;;;;;;;;;;;;20.41;78.23;98072.54;1700924;83;20295;-91
2021/07/12 01:36:23;;;;;;;;;;;;;;;20.43;78.28;98065.72;1695055;84;22208;-90
2021/07/12 01:39:03;;;;;;;;;;;;;;;20.35;78.29;98082.55;1696306;84;26854;-90
2021/07/12 01:41:31;;;;;;;;;;;;;;;20.27;78.29;98075.95;1697180;84;24592;-90
2021/07/12 01:44:22;;;;;;;;;;;;;;;20.23;78.30;98081.30;1696243;84;20226;-91
2021/07/12 01:47:09;;;;;;;;;;;;;;;20.23;78.35;98085.78;1695624;84;25149;-91
2021/07/12 01:49:56;;;;;;;;;;;;;;;20.23;78.37;98085.78;1695835;84;22209;-92
2021/07/12 01:52:51;;;;;;;;;;;;;;;20.25;78.42;98079.27;1669351;86;26096;-91
2021/07/12 01:55:28;;;;;;;;;;;;;;;20.28;78.44;98085.58;1694671;84;24533;-90
2021/07/12 01:58:00;;;;;;;;;;;;;;;20.22;78.49;98083.62;1668011;86;20234;-91
2021/07/12 02:00:38;;;;;;;;;;;;;;;20.13;78.54;98084.66;1669576;86;24964;-90
2021/07/12 02:03:12;;;;;;;;;;;;;;;20.06;78.58;98086.38;1669523;84;22428;-90
2021/07/12 02:05:49;;;;;;;;;;;;;;;19.97;78.64;98082.09;1682187;85;26787;-91
2021/07/12 02:08:19;;;;;;;;;;;;;;;19.93;78.71;98074.99;1679709;85;24450;-90
2021/07/12 02:10:59;;;;;;;;;;;;;;;19.90;78.79;98078.52;1697788;84;20544;-91
2021/07/12 02:13:27;;;;;;;;;;;;;;;19.93;78.86;98075.49;1682758;85;24946;-91
2021/07/12 02:16:26;;;;;;;;;;;;;;;19.89;78.93;98073.70;1696675;84;22146;-90
2021/07/12 02:18:52;;;;;;;;;;;;;;;19.85;79.00;98071.06;1694696;84;26967;-90
2021/07/12 02:21:32;;;;;;;;;;;;;;;19.78;79.06;98073.25;1697977;83;25251;-90
2021/07/12 02:24:05;;;;;;;;;;;;;;;19.76;79.12;98076.08;1681603;84;20228;-90
2021/07/12 02:26:48;;;;;;;;;;;;;;;19.86;79.21;98085.98;1664262;84;25659;-91
2021/07/12 02:29:16;;;;;;;;;;;;;;;19.96;79.27;98097.23;1693106;84;22780;-90
2021/07/12 02:31:51;;;;;;;;;;;;;;;20.02;79.36;98095.19;1727298;83;26138;-89
2021/07/12 02:34:22;;;;;;;;;;;;;;;20.09;79.45;98100.63;1727207;83;24514;-90
2021/07/12 02:36:50;;;;;;;;;;;;;;;20.11;79.53;98092.00;1728014;83;20491;-89
2021/07/12 02:39:17;;;;;;;;;;;;;;;20.07;79.57;98082.73;1724207;83;24764;-87
2021/07/12 02:41:44;;;;;;;;;;;;;;;20.05;79.63;98085.55;1738019;81;21845;-87
2021/07/12 02:44:11;;;;;;;;;;;;;;;20.02;79.66;98081.91;1724571;83;26124;-87
2021/07/12 02:46:43;;;;;;;;;;;;;;;20.03;79.71;98078.25;1725210;83;23964;-88
2021/07/12 02:49:16;;;;;;;;;;;;;;;20.03;79.76;98085.39;1725700;83;20369;-89
2021/07/12 02:51:46;;;;;;;;;;;;;;;20.01;79.81;98088.24;1727084;82;25691;-89
2021/07/12 02:54:15;;;;;;;;;;;;;;;19.97;79.87;98092.23;1723389;83;22162;-89
2021/07/12 02:56:47;;;;;;;;;;;;;;;19.95;79.90;98090.27;1725649;83;26798;-89
2021/07/12 02:59:13;;;;;;;;;;;;;;;20.00;79.97;98097.70;1725597;82;24512;-86
2021/07/12 03:01:41;;;;;;;;;;;;;;;19.99;80.01;98098.70;1693274;83;20565;-86
2021/07/12 03:04:07;;;;;;;;;;;;;;;20.00;80.06;98100.36;1725037;83;20307;-86
2021/07/12 03:06:33;;;;;;;;;;;;;;;20.03;80.13;98101.33;1726452;83;21951;-86
2021/07/12 03:09:07;;;;;;;;;;;;;;;20.02;80.19;98106.31;1725045;82;26104;-90
2021/07/12 03:11:50;;;;;;;;;;;;;;;20.03;80.23;98110.63;1726419;83;24456;-90
2021/07/12 03:14:22;;;;;;;;;;;;;;;20.02;80.26;98106.31;1726345;83;20259;-89
2021/07/12 03:16:49;;;;;;;;;;;;;;;20.02;80.28;98101.00;1727895;82;24793;-88
2021/07/12 03:19:28;;;;;;;;;;;;;;;20.02;80.33;98108.47;1726049;83;22764;-88
2021/07/12 03:21:55;;;;;;;;;;;;;;;20.05;80.39;98107.30;1695468;83;25860;-89
2021/07/12 03:24:23;;;;;;;;;;;;;;;20.05;80.42;98105.98;1750407;79;25461;-88
2021/07/12 03:26:53;;;;;;;;;;;;;;;20.07;80.46;98104.48;1778843;79;20205;-88
2021/07/12 03:29:19;;;;;;;;;;;;;;;20.04;80.49;98106.97;1773606;80;24902;-89
2021/07/12 03:31:45;;;;;;;;;;;;;;;20.04;80.50;98107.80;1773935;80;22061;-89
2021/07/12 03:34:12;;;;;;;;;;;;;;;20.09;80.55;98106.44;1775942;79;25960;-90
2021/07/12 03:36:39;;;;;;;;;;;;;;;20.11;80.58;98105.78;1773337;80;24436;-88
2021/07/12 03:39:06;;;;;;;;;;;;;;;20.13;80.60;98109.10;1745272;80;20249;-90
2021/07/12 03:41:35;;;;;;;;;;;;;;;20.14;80.62;98108.07;1771855;80;25663;-90
2021/07/12 03:44:04;;;;;;;;;;;;;;;20.14;80.62;98122.19;1775306;80;22751;-88
2021/07/12 03:46:30;;;;;;;;;;;;;;;20.15;80.63;98125.17;1778578;80;26042;-89
2021/07/12 03:48:58;;;;;;;;;;;;;;;20.15;80.63;98127.83;1774677;80;20904;-89
2021/07/12 03:51:28;;;;;;;;;;;;;;;20.16;80.61;98139.30;1776449;80;20244;-89
2021/07/12 03:54:04;;;;;;;;;;;;;;;20.14;80.61;98147.43;1770561;80;24760;-93
2021/07/12 03:56:48;;;;;;;;;;;;;;;20.13;80.59;98159.05;1777030;80;21998;-92
2021/07/12 03:59:26;;;;;;;;;;;;;;;20.11;80.59;98143.80;1779761;79;26009;-92
2021/07/12 04:01:52;;;;;;;;;;;;;;;20.10;80.64;98136.00;1779855;80;24520;-90
2021/07/12 04:04:19;;;;;;;;;;;;;;;20.05;80.70;98126.73;1781594;79;20275;-90
2021/07/12 04:07:00;;;;;;;;;;;;;;;20.08;80.75;98128.20;1775271;80;24754;-90
2021/07/12 04:09:39;;;;;;;;;;;;;;;20.10;80.84;98136.83;1777546;79;22872;-90
2021/07/12 04:12:22;;;;;;;;;;;;;;;20.13;80.94;98139.13;1769059;79;26038;-90
2021/07/12 04:14:42;;;;;;;;;;;;;;;20.15;81.03;98134.97;1775101;80;25310;-90
2021/07/12 04:17:15;;;;;;;;;;;;;;;20.18;81.14;98132.81;1745458;80;34640;-91
2021/07/12 04:19:42;;;;;;;;;;;;;;;20.26;81.23;98135.91;1769666;80;24771;-90
2021/07/12 04:22:08;;;;;;;;;;;;;;;20.37;81.35;98135.54;1776861;80;20365;-91
2021/07/12 04:24:35;;;;;;;;;;;;;;;20.50;81.44;98141.61;1770053;80;26010;-90
2021/07/12 04:27:02;;;;;;;;;;;;;;;20.62;81.50;98144.99;1718934;83;24660;-89
2021/07/12 04:29:33;;;;;;;;;;;;;;;20.80;81.57;98138.05;1720353;82;20484;-87
2021/07/12 04:32:03;;;;;;;;;;;;;;;20.93;81.63;98129.47;1701200;84;25009;-87
2021/07/12 04:34:28;;;;;;;;;;;;;;;20.98;81.66;98121.27;1722830;82;22779;-86
2021/07/12 04:37:00;;;;;;;;;;;;;;;20.98;81.64;98126.59;1727800;82;26827;-86
2021/07/12 04:39:26;;;;;;;;;;;;;;;21.07;81.60;98128.66;1699951;82;24696;-86
2021/07/12 04:41:53;;;;;;;;;;;;;;;21.13;81.57;98123.45;1733082;80;20323;-86
2021/07/12 04:44:21;;;;;;;;;;;;;;;21.11;81.51;98127.31;1710860;83;24761;-86
2021/07/12 04:46:48;;;;;;;;;;;;;;;21.10;81.39;98130.98;1719230;82;22697;-86
2021/07/12 04:49:14;;;;;;;;;;;;;;;21.10;81.32;98123.83;1702845;83;25997;-86
2021/07/12 04:51:40;;;;;;;;;;;;;;;21.10;81.26;98121.16;1729904;82;24427;-85
2021/07/12 04:54:06;;;;;;;;;;;;;;;21.01;81.20;98115.58;1722654;83;20178;-86
2021/07/12 04:56:33;;;;;;;;;;;;;;;20.89;81.18;98111.72;1728196;82;20324;-85
2021/07/12 04:59:03;;;;;;;;;;;;;;;20.77;81.15;98106.00;1696873;84;22055;-86
2021/07/12 05:01:32;;;;;;;;;;;;;;;20.69;81.16;98102.06;1729596;81;25571;-85
2021/07/12 05:03:56;;;;;;;;;;;;;;;20.63;81.19;98099.28;1689443;83;24293;-86
2021/07/12 05:06:26;;;;;;;;;;;;;;;20.58;81.18;98100.33;1723116;83;20276;-88
2021/07/12 05:08:57;;;;;;;;;;;;;;;20.56;81.22;98095.70;1701815;82;22639;-88
2021/07/12 05:11:26;;;;;;;;;;;;;;;20.56;81.25;98103.69;1701502;84;22064;-87
2021/07/12 05:13:55;;;;;;;;;;;;;;;20.57;81.31;98099.50;1703307;84;25699;-87
2021/07/12 05:16:24;;;;;;;;;;;;;;;20.73;81.37;98095.37;1701712;84;24439;-87
2021/07/12 05:18:51;;;;;;;;;;;;;;;20.88;81.41;98096.77;1750529;80;20217;-87
2021/07/12 05:21:17;;;;;;;;;;;;;;;21.02;81.39;98099.11;1713087;82;24735;-87
2021/07/12 05:23:43;;;;;;;;;;;;;;;21.11;81.38;98108.16;1718533;82;21973;-87
2021/07/12 05:26:09;;;;;;;;;;;;;;;21.15;81.36;98106.84;1732373;81;21084;-87
2021/07/12 05:28:37;;;;;;;;;;;;;;;21.17;81.33;98112.78;1724280;83;24467;-87
2021/07/12 05:31:06;;;;;;;;;;;;;;;21.22;81.29;98116.27;1732429;82;20161;-87
2021/07/12 05:33:35;;;;;;;;;;;;;;;21.22;81.23;98117.06;1722802;83;24318;-87
2021/07/12 05:36:01;;;;;;;;;;;;;;;21.22;81.17;98115.73;1724498;83;22056;-88
2021/07/12 05:38:27;;;;;;;;;;;;;;;21.16;81.08;98103.68;1720993;83;26025;-83
2021/07/12 05:40:53;;;;;;;;;;;;;;;21.25;81.05;98114.05;1723952;83;20276;-83
2021/07/12 05:43:19;;;;;;;;;;;;;;;21.17;81.02;98108.80;1732463;81;20530;-83
2021/07/12 05:45:45;;;;;;;;;;;;;;;21.13;80.97;98116.80;1733107;82;24837;-83
2021/07/12 05:48:11;;;;;;;;;;;;;;;21.14;80.96;98114.50;1732915;82;22039;-83
2021/07/12 05:50:37;;;;;;;;;;;;;;;21.06;80.90;98118.52;1731445;81;21027;-84
2021/07/12 05:53:04;;;;;;;;;;;;;;;20.92;80.85;98115.34;1732735;80;24460;-84
2021/07/12 05:55:32;;;;;;;;;;;;;;;20.81;80.82;98114.44;1732322;82;20270;-84
2021/07/12 05:57:58;;;;;;;;;;;;;;;20.78;80.84;98117.47;1704057;82;24757;-86
2021/07/12 06:00:25;;;;;;;;;;;;;;;20.73;80.81;98112.66;1735096;81;20920;-86
2021/07/12 06:02:51;;;;;;;;;;;;;;;20.76;80.83;98114.15;1734188;81;25988;-86
2021/07/12 06:05:20;;;;;;;;;;;;;;;20.81;80.85;98120.59;1711869;82;20288;-86
2021/07/12 06:07:47;;;;;;;;;;;;;;;20.86;80.82;98118.72;1711133;82;20192;-86
2021/07/12 06:10:13;;;;;;;;;;;;;;;20.82;80.83;98114.77;1717356;82;25169;-86
2021/07/12 06:12:40;;;;;;;;;;;;;;;20.77;80.82;98114.48;1717850;82;22197;-86
2021/07/12 06:15:07;;;;;;;;;;;;;;;20.67;80.81;98111.24;1712081;82;25532;-87
2021/07/12 06:17:33;;;;;;;;;;;;;;;20.64;80.85;98107.09;1714650;82;24490;-86
2021/07/12 06:20:01;;;;;;;;;;;;;;;20.58;80.85;98109.63;1714493;82;20225;-87
2021/07/12 06:22:28;;;;;;;;;;;;;;;20.57;80.87;98112.79;1717500;82;24052;-89
2021/07/12 06:24:54;;;;;;;;;;;;;;;20.50;80.92;98111.04;1715543;82;22078;-88
2021/07/12 06:27:20;;;;;;;;;;;;;;;20.41;80.92;98103.61;1713202;82;21091;-88
2021/07/12 06:29:46;;;;;;;;;;;;;;;20.34;80.97;98102.19;1711483;83;20953;-88
2021/07/12 06:32:12;;;;;;;;;;;;;;;20.29;80.99;98099.70;1717305;82;20266;-88
2021/07/12 06:34:38;;;;;;;;;;;;;;;20.26;81.05;98094.22;1710833;82;24593;-88
2021/07/12 06:37:05;;;;;;;;;;;;;;;20.27;81.13;98103.84;1705948;83;20877;-88
2021/07/12 06:39:31;;;;;;;;;;;;;;;20.23;81.18;98096.41;1714288;83;26776;-88
2021/07/12 06:41:57;;;;;;;;;;;;;;;20.18;81.20;98098.77;1711940;83;20234;-88
2021/07/12 06:44:25;;;;;;;;;;;;;;;20.13;81.26;98106.44;1680988;83;20914;-88
2021/07/12 06:46:51;;;;;;;;;;;;;;;20.18;81.32;98105.41;1711178;82;24860;-88
2021/07/12 06:49:17;;;;;;;;;;;;;;;20.35;81.40;98105.64;1714655;82;22042;-87
2021/07/12 06:51:43;;;;;;;;;;;;;;;20.38;81.44;98107.46;1710491;83;26053;-87
2021/07/12 06:54:12;;;;;;;;;;;;;;;20.31;81.47;98105.64;1704751;83;24655;-87
2021/07/12 06:56:38;;;;;;;;;;;;;;;20.26;81.53;98108.83;1709407;82;20251;-88
2021/07/12 06:59:04;;;;;;;;;;;;;;;20.33;81.57;98105.01;1710440;83;21026;-88
2021/07/12 07:01:49;;;;;;;;;;;;;;;20.48;81.65;98105.89;1715610;83;21966;-91
2021/07/12 07:04:16;;;;;;;;;;;;;;;20.48;81.66;98109.05;1711218;83;26067;-84
2021/07/12 07:06:42;;;;;;;;;;;;;;;20.52;81.69;98112.50;1686181;82;24456;-84
2021/07/12 07:09:08;;;;;;;;;;;;;;;20.53;81.70;98100.03;1703863;82;20528;-84
2021/07/12 07:11:34;;;;;;;;;;;;;;;20.44;81.72;98107.25;1709976;82;25005;-83
2021/07/12 07:14:00;;;;;;;;;;;;;;;20.42;81.74;98115.40;1711053;83;20257;-83
2021/07/12 07:16:27;;;;;;;;;;;;;;;20.41;81.75;98125.70;1708709;83;26054;-83
2021/07/12 07:18:53;;;;;;;;;;;;;;;20.41;81.76;98133.67;1712925;83;24482;-83
2021/07/12 07:21:20;;;;;;;;;;;;;;;20.38;81.72;98135.88;1709919;82;20617;-84
2021/07/12 07:23:47;;;;;;;;;;;;;;;20.32;81.72;98127.27;1710225;82;24966;-83
2021/07/12 07:26:14;;;;;;;;;;;;;;;20.23;81.73;98124.31;1726473;81;20305;-84
2021/07/12 07:28:44;;;;;;;;;;;;;;;20.09;81.73;98114.41;1670031;84;26057;-84
2021/07/12 07:31:10;;;;;;;;;;;;;;;19.98;81.74;98103.69;1667489;86;24868;-84
2021/07/12 07:33:36;;;;;;;;;;;;;;;19.90;81.79;98091.79;1668873;84;20576;-84
2021/07/12 07:36:03;;;;;;;;;;;;;;;19.84;81.83;98095.14;1673003;84;25884;-84
2021/07/12 07:38:29;;;;;;;;;;;;;;;19.83;81.92;98094.80;1692110;83;22015;-83
2021/07/12 07:40:55;;;;;;;;;;;;;;;19.86;82.01;98095.77;1699942;82;21112;-83
2021/07/12 07:43:26;;;;;;;;;;;;;;;19.90;82.12;98095.77;1668505;84;24418;-83
2021/07/12 07:45:49;;;;;;;;;;;;;;;19.92;82.22;98099.89;1672659;84;20213;-84
2021/07/12 07:48:15;;;;;;;;;;;;;;;19.93;82.31;98100.22;1692202;84;20874;-83
2021/07/12 07:50:43;;;;;;;;;;;;;;;19.96;82.43;98105.20;1733780;82;22029;-83
2021/07/12 07:53:10;;;;;;;;;;;;;;;19.99;82.54;98094.72;1733712;81;26048;-83
2021/07/12 07:55:36;;;;;;;;;;;;;;;20.04;82.63;98097.67;1733453;81;24506;-83
2021/07/12 07:58:02;;;;;;;;;;;;;;;20.09;82.70;98103.29;1732070;82;20292;-83
2021/07/12 08:00:29;;;;;;;;;;;;;;;20.17;82.80;98112.55;1733307;82;20255;-83
2021/07/12 08:02:55;;;;;;;;;;;;;;;20.20;82.87;98110.86;1734651;81;21972;-87
2021/07/12 08:05:21;;;;;;;;;;;;;;;20.29;82.98;98112.45;1732869;82;25967;-87
2021/07/12 08:07:47;;;;;;;;;;;;;;;20.42;83.06;98108.75;1733619;82;24403;-87
2021/07/12 08:10:15;;;;;;;;;;;;;;;20.57;83.09;98105.31;1733475;82;20475;-87
2021/07/12 08:12:41;;;;;;;;;;;;;;;20.66;83.13;98108.25;1733545;82;25149;-87
2021/07/12 08:15:09;;;;;;;;;;;;;;;20.72;83.20;98112.86;1731801;82;22132;-87
2021/07/12 08:17:35;;;;;;;;;;;;;;;20.82;83.24;98118.76;1733541;81;26854;-87
2021/07/12 08:20:07;;;;;;;;;;;;;;;20.87;83.26;98113.22;1733505;82;24547;-87
2021/07/12 08:22:36;;;;;;;;;;;;;;;20.94;83.27;98117.83;1729791;81;20322;-87
2021/07/12 08:25:04;;;;;;;;;;;;;;;21.01;83.30;98117.41;1751845;80;25097;-87
2021/07/12 08:27:31;;;;;;;;;;;;;;;21.05;83.33;98120.05;1743769;82;22120;-87
2021/07/12 08:29:57;;;;;;;;;;;;;;;21.12;83.33;98124.45;1716288;82;26035;-87
2021/07/12 08:32:23;;;;;;;;;;;;;;;21.17;83.34;98122.11;1743249;81;20289;-87
2021/07/12 08:34:49;;;;;;;;;;;;;;;21.24;83.38;98121.70;1747144;82;20449;-87
2021/07/12 08:37:15;;;;;;;;;;;;;;;21.29;83.35;98115.33;1742987;82;25014;-87
2021/07/12 08:39:41;;;;;;;;;;;;;;;21.33;83.36;98117.64;1746299;82;20805;-87
2021/07/12 08:42:09;;;;;;;;;;;;;;;21.34;83.32;98119.27;1743673;82;26006;-86
2021/07/12 08:44:35;;;;;;;;;;;;;;;21.40;83.28;98121.20;1739365;82;24438;-86
2021/07/12 08:47:01;;;;;;;;;;;;;;;21.50;83.36;98117.27;1745367;82;20388;-86
2021/07/12 08:49:27;;;;;;;;;;;;;;;21.60;83.35;98121.00;1745303;82;25038;-86
2021/07/12 08:51:53;;;;;;;;;;;;;;;21.59;83.33;98124.67;1743575;82;21960;-86
2021/07/12 08:54:19;;;;;;;;;;;;;;;21.62;83.18;98121.13;1742898;82;25992;-86
2021/07/12 08:56:47;;;;;;;;;;;;;;;21.71;83.16;98125.33;1741248;82;21360;-86
2021/07/12 08:59:28;;;;;;;;;;;;;;;21.90;83.16;98127.11;1739330;82;20407;-86
2021/07/12 09:02:02;;;;;;;;;;;;;;;21.92;83.03;98114.45;1705513;83;25763;-86
2021/07/12 09:04:28;;;;;;;;;;;;;;;21.91;82.83;98120.78;1672963;85;22013;-86
2021/07/12 09:07:01;;;;;;;;;;;;;;;21.92;82.58;98119.77;1679063;83;25998;-87
2021/07/12 09:09:27;;;;;;;;;;;;;;;21.98;82.50;98117.73;1672654;85;25122;-87
2021/07/12 09:11:53;;;;;;;;;;;;;;;22.04;82.44;98113.78;1697620;83;20363;-87
2021/07/12 09:14:19;;;;;;;;;;;;;;;22.15;82.38;98106.34;1698244;83;24945;-87
2021/07/12 09:16:51;;;;;;;;;;;;;;;22.21;82.32;98106.39;1707473;83;21921;-86
2021/07/12 09:19:19;;;;;;;;;;;;;;;22.36;82.26;98107.70;1683214;83;26115;-86
2021/07/12 09:21:49;;;;;;;;;;;;;;;22.44;82.12;98111.56;1679410;83;25226;-86
2021/07/12 09:24:23;;;;;;;;;;;;;;;22.48;81.90;98110.98;1682829;85;20369;-85
2021/07/12 09:26:51;;;;;;;;;;;;;;;22.56;81.69;98115.38;1692730;83;25832;-85
2021/07/12 09:29:19;;;;;;;;;;;;;;;22.57;81.51;98110.87;1707909;83;21874;-85
2021/07/12 09:31:46;;;;;;;;;;;;;;;22.62;81.37;98118.63;1707897;83;26372;-85
2021/07/12 09:34:20;;;;;;;;;;;;;;;22.61;81.16;98120.14;1750287;81;24524;-85
2021/07/12 09:36:47;;;;;;;;;;;;;;;22.59;80.91;98118.98;1754784;81;20214;-88
2021/07/12 09:39:17;;;;;;;;;;;;;;;22.67;80.80;98122.88;1724479;82;25789;-88
2021/07/12 09:41:45;;;;;;;;;;;;;;;22.76;80.66;98123.58;1721297;83;22241;-87
2021/07/12 09:44:11;;;;;;;;;;;;;;;22.90;80.59;98115.52;1722405;81;26068;-88
2021/07/12 09:46:37;;;;;;;;;;;;;;;22.98;80.49;98112.38;1720007;83;24330;-88
2021/07/12 09:49:07;;;;;;;;;;;;;;;22.96;80.28;98107.76;1707558;83;20214;-88
2021/07/12 09:51:34;;;;;;;;;;;;;;;22.98;80.20;98109.70;1708221;83;25031;-88
2021/07/12 09:54:19;;;;;;;;;;;;;;;22.81;79.93;98109.98;1711371;83;22072;-88
2021/07/12 09:56:46;;;;;;;;;;;;;;;22.68;79.74;98109.02;1714290;83;26033;-88
2021/07/12 09:59:13;;;;;;;;;;;;;;;22.47;79.45;98104.53;1751292;81;24632;-88
2021/07/12 10:01:41;;;;;;;;;;;;;;;22.49;79.31;98105.97;1726937;81;20490;-88
2021/07/12 10:04:07;;;;;;;;;;;;;;;22.48;79.20;98094.98;1749974;81;25105;-88
2021/07/12 10:06:34;;;;;;;;;;;;;;;22.50;79.08;98102.30;1752389;81;22187;-88
2021/07/12 10:09:01;;;;;;;;;;;;;;;22.59;79.05;98096.31;1756894;81;26808;-88
2021/07/12 10:11:27;;;;;;;;;;;;;;;22.67;79.04;98095.37;1751854;80;24695;-88
2021/07/12 10:13:53;;;;;;;;;;;;;;;22.60;78.86;98095.80;1751542;81;20299;-88
2021/07/12 10:16:19;;;;;;;;;;;;;;;22.59;78.75;98090.98;1758314;81;25020;-88
2021/07/12 10:18:45;;;;;;;;;;;;;;;22.62;78.65;98087.11;1754632;81;20957;-88
2021/07/12 10:21:13;;;;;;;;;;;;;;;22.69;78.62;98086.17;1758398;80;21264;-88
2021/07/12 10:23:39;;;;;;;;;;;;;;;22.77;78.53;98082.55;1754440;81;21240;-88
2021/07/12 10:26:05;;;;;;;;;;;;;;;22.83;78.50;98081.78;1749956;80;20429;-88
2021/07/12 10:28:43;;;;;;;;;;;;;;;22.92;78.46;98084.61;1760964;79;20803;-88
2021/07/12 10:31:22;;;;;;;;;;;;;;;23.00;78.38;98082.33;1758059;81;21931;-88
2021/07/12 10:33:48;;;;;;;;;;;;;;;23.06;78.24;98069.54;1762040;79;26039;-88
2021/07/12 10:36:32;;;;;;;;;;;;;;;23.20;78.13;98064.59;1763072;81;20466;-88
2021/07/12 10:38:58;;;;;;;;;;;;;;;23.28;78.02;98063.11;1752226;81;20333;-86
2021/07/12 10:41:28;;;;;;;;;;;;;;;23.34;77.88;98066.34;1761247;80;25065;-87
2021/07/12 10:43:58;;;;;;;;;;;;;;;23.41;77.77;98058.34;1764813;79;21948;-86
2021/07/12 10:46:27;;;;;;;;;;;;;;;23.56;77.71;98055.91;1763343;81;26812;-87
2021/07/12 10:48:58;;;;;;;;;;;;;;;23.62;77.51;98044.39;1756731;80;24437;-87
2021/07/12 10:51:25;;;;;;;;;;;;;;;23.67;77.28;98036.63;1761406;80;20285;-86
2021/07/12 10:54:17;;;;;;;;;;;;;;;23.74;77.11;98031.29;1757516;80;25767;-86
2021/07/12 10:56:45;;;;;;;;;;;;;;;23.75;76.82;98027.09;1761022;81;21419;-87
2021/07/12 10:59:24;;;;;;;;;;;;;;;23.72;76.52;98031.52;1762895;80;26074;-87
2021/07/12 11:01:50;;;;;;;;;;;;;;;23.72;76.25;98027.51;1765587;79;24538;-87
2021/07/12 11:04:36;;;;;;;;;;;;;;;23.82;76.11;98032.47;1758985;80;20828;-87
2021/07/12 11:07:03;;;;;;;;;;;;;;;23.91;76.01;98041.11;1760207;81;25183;-86
2021/07/12 11:09:49;;;;;;;;;;;;;;;23.94;75.90;98035.38;1731941;82;21985;-87
2021/07/12 11:12:31;;;;;;;;;;;;;;;23.90;75.71;98028.26;1719215;82;26801;-87
2021/07/12 11:15:16;;;;;;;;;;;;;;;23.77;75.45;98013.53;1710728;83;25326;-87
2021/07/12 11:18:00;;;;;;;;;;;;;;;23.69;75.22;98013.70;1761497;81;20311;-89
2021/07/12 11:20:43;;;;;;;;;;;;;;;23.68;75.08;98012.88;1758624;81;25047;-89
2021/07/12 11:23:13;;;;;;;;;;;;;;;23.74;74.95;98011.25;1761940;81;22100;-89
2021/07/12 11:25:40;;;;;;;;;;;;;;;23.82;74.87;98014.27;1736705;81;26100;-90
2021/07/12 11:28:10;;;;;;;;;;;;;;;23.77;74.67;98009.53;1762259;80;24704;-89
2021/07/12 11:30:38;;;;;;;;;;;;;;;23.68;74.50;98000.84;1764831;81;20155;-89
2021/07/12 11:33:05;;;;;;;;;;;;;;;23.67;74.32;98007.24;1759088;81;25831;-90
2021/07/12 11:35:31;;;;;;;;;;;;;;;23.69;74.23;98002.50;1763884;81;21947;-89
2021/07/12 11:37:59;;;;;;;;;;;;;;;23.74;74.15;98000.05;1762778;81;25945;-89
2021/07/12 11:40:25;;;;;;;;;;;;;;;23.90;74.14;98008.72;1767020;81;23970;-89
2021/07/12 11:42:52;;;;;;;;;;;;;;;24.03;74.08;98002.91;1755870;81;20857;-89
2021/07/12 11:45:19;;;;;;;;;;;;;;;24.13;74.02;97999.32;1759843;81;24939;-89
2021/07/12 11:47:47;;;;;;;;;;;;;;;24.14;73.89;98002.82;1735004;81;22045;-89
2021/07/12 11:50:18;;;;;;;;;;;;;;;24.09;73.72;98002.09;1766007;80;26071;-89
2021/07/12 11:52:53;;;;;;;;;;;;;;;24.13;73.62;98006.52;1765987;80;24509;-88
2021/07/12 11:55:24;;;;;;;;;;;;;;;24.14;73.48;98000.15;1763293;81;20450;-89
2021/07/12 11:57:56;;;;;;;;;;;;;;;24.18;73.38;98001.41;1764611;80;25707;-90
2021/07/12 12:00:27;;;;;;;;;;;;;;;24.17;73.25;97999.72;1763069;81;22153;-89
2021/07/12 12:03:00;;;;;;;;;;;;;;;24.18;73.15;97995.55;1765602;81;26026;-89
2021/07/12 12:05:35;;;;;;;;;;;;;;;24.25;73.05;98000.09;1756923;81;25320;-89
2021/07/12 12:08:01;;;;;;;;;;;;;;;24.32;72.96;98000.41;1751881;81;20283;-90
2021/07/12 12:10:34;;;;;;;;;;;;;;;24.39;72.82;97987.02;1756950;81;24929;-88
2021/07/12 12:13:11;;;;;;;;;;;;;;;24.47;72.73;97985.49;1753051;81;21913;-89
2021/07/12 12:15:39;;;;;;;;;;;;;;;24.53;72.62;97973.45;1758530;81;27028;-90
2021/07/12 12:18:06;;;;;;;;;;;;;;;24.54;72.44;97975.11;1764168;81;24444;-87
2021/07/12 12:20:34;;;;;;;;;;;;;;;24.56;72.28;97972.20;1764204;80;20289;-88
2021/07/12 12:23:02;;;;;;;;;;;;;;;24.59;72.18;97976.65;1759919;79;25052;-90
2021/07/12 12:25:30;;;;;;;;;;;;;;;24.72;72.14;97966.94;1760156;80;22615;-89
2021/07/12 12:27:57;;;;;;;;;;;;;;;24.71;72.00;97963.98;1763718;80;25726;-90
2021/07/12 12:30:23;;;;;;;;;;;;;;;24.66;71.77;97959.22;1760621;81;24508;-90
2021/07/12 12:32:54;;;;;;;;;;;;;;;24.65;71.61;97962.95;1759717;81;20171;-89
2021/07/12 12:35:21;;;;;;;;;;;;;;;24.71;71.54;97958.63;1757615;79;25091;-90
2021/07/12 12:37:48;;;;;;;;;;;;;;;24.76;71.42;97958.82;1760662;81;21928;-90
2021/07/12 12:40:16;;;;;;;;;;;;;;;24.83;71.28;97962.28;1762232;81;25976;-88
2021/07/12 12:42:42;;;;;;;;;;;;;;;24.92;71.18;97961.08;1761025;81;25280;-89
2021/07/12 12:45:08;;;;;;;;;;;;;;;25.10;71.15;97953.70;1756775;81;20281;-89
2021/07/12 12:47:34;;;;;;;;;;;;;;;25.28;71.15;97945.30;1762160;79;25046;-90
2021/07/12 12:50:11;;;;;;;;;;;;;;;25.27;70.91;97944.98;1756366;81;22111;-89
2021/07/12 12:52:37;;;;;;;;;;;;;;;25.23;70.65;97942.44;1757867;79;26012;-89
2021/07/12 12:55:10;;;;;;;;;;;;;;;25.28;70.53;97944.48;1759734;80;24698;-89
2021/07/12 12:57:34;;;;;;;;;;;;;;;25.35;70.48;97936.73;1758096;81;20349;-89
2021/07/12 13:00:08;;;;;;;;;;;;;;;25.36;70.31;97932.20;1760402;81;25112;-89
2021/07/12 13:02:38;;;;;;;;;;;;;;;25.33;70.08;97924.05;1760431;79;21973;-89
2021/07/12 13:05:10;;;;;;;;;;;;;;;25.34;69.90;97921.68;1760580;81;25961;-89